Main page
METAR-TAF:

METAR-TAF

Airports :

Urmia Airport

Urmia, Iran

latitude: 37-32N, longitude: 045-05E, elevation: 1297 m

Current weather observation

The report was made 24 minutes ago, at 08:00 UTC
Wind 4 kt from the South
Temperature 21°C
Humidity 56%
Pressure 1015 hPa
Visibility 10 km or more
Few clouds at a height of 3500 ft, Cumulonimbus.
Scattered clouds at a height of 4000 ft

METAR: OITR 240800Z 18004KT 9999 FEW035CB SCT040 21/12 Q1014 A2996

Time: 12:54 (08:24 UTC)

Forecast

The report was made 2 hours and 54 minutes ago, at 05:30 UTC
Forecast valid from 24 at 06 UTC to 25 at 12 UTC
Wind 7 kt from the Southeast
Visibility: 7000 m
Few clouds at a height of 3500 ft
Scattered clouds at a height of 10000 ft
Temporary
from 24 at 14 UTC to 25 at 19 UTC
Wind 19 kt from the Northwest
Scattered clouds at a height of 3000 ft, Cumulonimbus.
Scattered clouds at a height of 3500 ft

TAF: OITR 240530Z 2406/2512 14007KT 7000 FEW035 SCT100 TEMPO 2414/2519 31019KT TSSHRA SCT030CB SCT035

Weather observations and forecasts of more than 4000 airports (METAR and TAF reports).

The available stations are represented by yellow and red dots on the map.

Hover mouse over dot to see the name of the station.

Then click to see weather observations and forecasts.

To change the map : click on the green buttons with a black cross to zoom in, on the green button with a dash to zoom out, or on the green arrows for adjacent maps.


METAR-TAF: